sensor_id;sensor_type;location;lat;lon;timestamp;P1;durP1;ratioP1;P2;durP2;ratioP2
22034;SDS011;11181;51.002;4.356;2022-08-16T00:01:47;10.55;;;8.77;;
22034;SDS011;11181;51.002;4.356;2022-08-16T00:04:14;12.02;;;10.30;;
22034;SDS011;11181;51.002;4.356;2022-08-16T00:06:42;11.00;;;9.82;;
22034;SDS011;11181;51.002;4.356;2022-08-16T00:09:09;11.35;;;10.05;;
22034;SDS011;11181;51.002;4.356;2022-08-16T00:11:36;10.52;;;9.52;;
22034;SDS011;11181;51.002;4.356;2022-08-16T00:14:07;12.18;;;10.35;;
22034;SDS011;11181;51.002;4.356;2022-08-16T00:16:36;11.77;;;10.55;;
22034;SDS011;11181;51.002;4.356;2022-08-16T00:19:03;11.68;;;9.55;;
22034;SDS011;11181;51.002;4.356;2022-08-16T00:21:31;11.15;;;9.90;;
22034;SDS011;11181;51.002;4.356;2022-08-16T00:23:59;12.27;;;11.00;;
22034;SDS011;11181;51.002;4.356;2022-08-16T00:26:27;11.90;;;9.77;;
22034;SDS011;11181;51.002;4.356;2022-08-16T00:28:54;12.20;;;10.93;;
22034;SDS011;11181;51.002;4.356;2022-08-16T00:31:22;14.40;;;10.82;;
22034;SDS011;11181;51.002;4.356;2022-08-16T00:33:49;12.05;;;10.70;;
22034;SDS011;11181;51.002;4.356;2022-08-16T00:36:16;11.68;;;10.57;;
22034;SDS011;11181;51.002;4.356;2022-08-16T00:38:43;11.85;;;10.65;;
22034;SDS011;11181;51.002;4.356;2022-08-16T00:41:10;13.05;;;11.73;;
22034;SDS011;11181;51.002;4.356;2022-08-16T00:43:37;14.23;;;11.05;;
22034;SDS011;11181;51.002;4.356;2022-08-16T00:46:06;14.95;;;11.52;;
22034;SDS011;11181;51.002;4.356;2022-08-16T00:48:39;10.68;;;9.48;;
22034;SDS011;11181;51.002;4.356;2022-08-16T00:51:08;12.80;;;10.75;;
22034;SDS011;11181;51.002;4.356;2022-08-16T00:53:36;11.60;;;10.10;;
22034;SDS011;11181;51.002;4.356;2022-08-16T00:56:05;10.18;;;9.27;;
22034;SDS011;11181;51.002;4.356;2022-08-16T00:58:35;15.18;;;10.18;;
22034;SDS011;11181;51.002;4.356;2022-08-16T01:01:06;12.90;;;10.02;;
22034;SDS011;11181;51.002;4.356;2022-08-16T01:03:33;11.68;;;10.48;;
22034;SDS011;11181;51.002;4.356;2022-08-16T01:06:03;13.30;;;11.98;;
22034;SDS011;11181;51.002;4.356;2022-08-16T01:08:31;11.32;;;10.18;;
22034;SDS011;11181;51.002;4.356;2022-08-16T01:11:00;13.55;;;10.88;;
22034;SDS011;11181;51.002;4.356;2022-08-16T01:13:29;13.43;;;10.50;;
22034;SDS011;11181;51.002;4.356;2022-08-16T01:15:58;10.25;;;9.35;;
22034;SDS011;11181;51.002;4.356;2022-08-16T01:18:30;9.70;;;8.70;;
22034;SDS011;11181;51.002;4.356;2022-08-16T01:21:01;13.75;;;10.60;;
22034;SDS011;11181;51.002;4.356;2022-08-16T01:23:44;16.10;;;11.55;;
22034;SDS011;11181;51.002;4.356;2022-08-16T01:26:25;10.83;;;9.73;;
22034;SDS011;11181;51.002;4.356;2022-08-16T01:28:54;12.30;;;11.10;;
22034;SDS011;11181;51.002;4.356;2022-08-16T01:31:23;9.82;;;8.93;;
22034;SDS011;11181;51.002;4.356;2022-08-16T01:33:52;12.95;;;11.68;;
22034;SDS011;11181;51.002;4.356;2022-08-16T01:36:19;12.67;;;11.47;;
22034;SDS011;11181;51.002;4.356;2022-08-16T01:38:48;13.35;;;11.07;;
22034;SDS011;11181;51.002;4.356;2022-08-16T01:41:16;13.43;;;12.03;;
22034;SDS011;11181;51.002;4.356;2022-08-16T01:43:45;11.77;;;10.53;;
22034;SDS011;11181;51.002;4.356;2022-08-16T01:46:18;14.23;;;11.27;;
22034;SDS011;11181;51.002;4.356;2022-08-16T01:48:47;15.13;;;12.70;;
22034;SDS011;11181;51.002;4.356;2022-08-16T01:51:18;17.23;;;11.83;;
22034;SDS011;11181;51.002;4.356;2022-08-16T01:53:48;13.37;;;11.33;;
22034;SDS011;11181;51.002;4.356;2022-08-16T01:56:15;14.33;;;12.00;;
22034;SDS011;11181;51.002;4.356;2022-08-16T01:58:42;12.93;;;11.53;;
22034;SDS011;11181;51.002;4.356;2022-08-16T02:01:10;13.83;;;11.27;;
22034;SDS011;11181;51.002;4.356;2022-08-16T02:03:37;14.00;;;11.37;;
22034;SDS011;11181;51.002;4.356;2022-08-16T02:06:04;12.10;;;10.90;;
22034;SDS011;11181;51.002;4.356;2022-08-16T02:08:32;16.03;;;11.07;;
22034;SDS011;11181;51.002;4.356;2022-08-16T02:11:02;14.67;;;11.73;;
22034;SDS011;11181;51.002;4.356;2022-08-16T02:13:30;12.97;;;11.67;;
22034;SDS011;11181;51.002;4.356;2022-08-16T02:15:57;14.03;;;11.07;;
22034;SDS011;11181;51.002;4.356;2022-08-16T02:18:24;14.13;;;12.23;;
22034;SDS011;11181;51.002;4.356;2022-08-16T02:20:52;11.73;;;10.53;;
22034;SDS011;11181;51.002;4.356;2022-08-16T02:23:19;12.77;;;10.20;;
22034;SDS011;11181;51.002;4.356;2022-08-16T02:25:47;13.00;;;11.47;;
22034;SDS011;11181;51.002;4.356;2022-08-16T02:28:16;13.53;;;11.93;;
22034;SDS011;11181;51.002;4.356;2022-08-16T02:30:43;13.47;;;11.27;;
22034;SDS011;11181;51.002;4.356;2022-08-16T02:33:11;12.50;;;11.30;;
22034;SDS011;11181;51.002;4.356;2022-08-16T02:35:38;11.87;;;10.67;;
22034;SDS011;11181;51.002;4.356;2022-08-16T02:38:05;12.43;;;10.97;;
22034;SDS011;11181;51.002;4.356;2022-08-16T02:40:32;13.80;;;11.50;;
22034;SDS011;11181;51.002;4.356;2022-08-16T02:42:59;12.90;;;10.90;;
22034;SDS011;11181;51.002;4.356;2022-08-16T02:45:28;12.37;;;11.10;;
22034;SDS011;11181;51.002;4.356;2022-08-16T02:47:55;11.57;;;10.47;;
22034;SDS011;11181;51.002;4.356;2022-08-16T02:50:23;16.97;;;11.20;;
22034;SDS011;11181;51.002;4.356;2022-08-16T02:52:50;11.97;;;9.37;;
22034;SDS011;11181;51.002;4.356;2022-08-16T02:55:17;13.17;;;10.60;;
22034;SDS011;11181;51.002;4.356;2022-08-16T02:57:44;13.87;;;11.00;;
22034;SDS011;11181;51.002;4.356;2022-08-16T03:00:13;12.07;;;10.30;;
22034;SDS011;11181;51.002;4.356;2022-08-16T03:02:42;12.37;;;11.07;;
22034;SDS011;11181;51.002;4.356;2022-08-16T03:05:10;13.77;;;11.07;;
22034;SDS011;11181;51.002;4.356;2022-08-16T03:07:38;13.60;;;10.77;;
22034;SDS011;11181;51.002;4.356;2022-08-16T03:10:06;12.60;;;9.53;;
22034;SDS011;11181;51.002;4.356;2022-08-16T03:12:35;12.27;;;11.17;;
22034;SDS011;11181;51.002;4.356;2022-08-16T03:15:03;14.10;;;10.53;;
22034;SDS011;11181;51.002;4.356;2022-08-16T03:17:30;14.63;;;11.40;;
22034;SDS011;11181;51.002;4.356;2022-08-16T03:19:59;14.10;;;11.03;;
22034;SDS011;11181;51.002;4.356;2022-08-16T03:22:26;17.27;;;12.47;;
22034;SDS011;11181;51.002;4.356;2022-08-16T03:24:54;14.10;;;12.20;;
22034;SDS011;11181;51.002;4.356;2022-08-16T03:27:22;15.33;;;11.70;;
22034;SDS011;11181;51.002;4.356;2022-08-16T03:29:49;12.83;;;11.53;;
22034;SDS011;11181;51.002;4.356;2022-08-16T03:32:16;13.43;;;10.57;;
22034;SDS011;11181;51.002;4.356;2022-08-16T03:34:42;11.97;;;10.73;;
22034;SDS011;11181;51.002;4.356;2022-08-16T03:37:11;12.77;;;11.23;;
22034;SDS011;11181;51.002;4.356;2022-08-16T03:39:39;18.23;;;13.27;;
22034;SDS011;11181;51.002;4.356;2022-08-16T03:42:06;14.87;;;12.07;;
22034;SDS011;11181;51.002;4.356;2022-08-16T03:44:33;13.17;;;11.53;;
22034;SDS011;11181;51.002;4.356;2022-08-16T03:46:59;15.73;;;11.90;;
22034;SDS011;11181;51.002;4.356;2022-08-16T03:49:26;14.00;;;12.47;;
22034;SDS011;11181;51.002;4.356;2022-08-16T03:51:53;13.93;;;11.67;;
22034;SDS011;11181;51.002;4.356;2022-08-16T03:54:22;11.70;;;10.03;;
22034;SDS011;11181;51.002;4.356;2022-08-16T03:56:49;14.07;;;12.00;;
22034;SDS011;11181;51.002;4.356;2022-08-16T03:59:16;15.83;;;11.97;;
22034;SDS011;11181;51.002;4.356;2022-08-16T04:01:42;14.30;;;12.57;;
22034;SDS011;11181;51.002;4.356;2022-08-16T04:04:09;16.30;;;12.37;;
22034;SDS011;11181;51.002;4.356;2022-08-16T04:06:36;15.53;;;11.83;;
22034;SDS011;11181;51.002;4.356;2022-08-16T04:09:03;14.27;;;12.50;;
22034;SDS011;11181;51.002;4.356;2022-08-16T04:11:31;13.23;;;11.57;;
22034;SDS011;11181;51.002;4.356;2022-08-16T04:13:58;14.40;;;12.03;;
22034;SDS011;11181;51.002;4.356;2022-08-16T04:16:26;14.43;;;11.93;;
22034;SDS011;11181;51.002;4.356;2022-08-16T04:18:55;13.70;;;12.30;;
22034;SDS011;11181;51.002;4.356;2022-08-16T04:21:22;14.13;;;12.43;;
22034;SDS011;11181;51.002;4.356;2022-08-16T04:23:49;15.70;;;12.37;;
22034;SDS011;11181;51.002;4.356;2022-08-16T04:26:15;18.47;;;12.20;;
22034;SDS011;11181;51.002;4.356;2022-08-16T04:28:44;14.03;;;12.10;;
22034;SDS011;11181;51.002;4.356;2022-08-16T04:31:11;19.90;;;13.23;;
22034;SDS011;11181;51.002;4.356;2022-08-16T04:33:37;14.33;;;12.83;;
22034;SDS011;11181;51.002;4.356;2022-08-16T04:36:04;13.77;;;12.30;;
22034;SDS011;11181;51.002;4.356;2022-08-16T04:38:32;15.10;;;12.60;;
22034;SDS011;11181;51.002;4.356;2022-08-16T04:40:59;13.63;;;12.40;;
22034;SDS011;11181;51.002;4.356;2022-08-16T04:43:26;14.40;;;12.37;;
22034;SDS011;11181;51.002;4.356;2022-08-16T04:45:54;13.43;;;12.03;;
22034;SDS011;11181;51.002;4.356;2022-08-16T04:48:21;13.83;;;12.40;;
22034;SDS011;11181;51.002;4.356;2022-08-16T04:50:48;16.53;;;13.67;;
22034;SDS011;11181;51.002;4.356;2022-08-16T04:53:15;14.20;;;12.63;;
22034;SDS011;11181;51.002;4.356;2022-08-16T04:55:42;16.87;;;12.07;;
22034;SDS011;11181;51.002;4.356;2022-08-16T04:58:09;14.63;;;13.07;;
22034;SDS011;11181;51.002;4.356;2022-08-16T05:00:36;14.23;;;12.83;;
22034;SDS011;11181;51.002;4.356;2022-08-16T05:03:05;14.20;;;12.57;;
22034;SDS011;11181;51.002;4.356;2022-08-16T05:05:35;14.80;;;12.57;;
22034;SDS011;11181;51.002;4.356;2022-08-16T05:08:04;12.70;;;11.33;;
22034;SDS011;11181;51.002;4.356;2022-08-16T05:10:32;13.33;;;11.93;;
22034;SDS011;11181;51.002;4.356;2022-08-16T05:13:00;13.73;;;12.30;;
22034;SDS011;11181;51.002;4.356;2022-08-16T05:15:28;13.63;;;11.93;;
22034;SDS011;11181;51.002;4.356;2022-08-16T05:17:55;14.53;;;13.03;;
22034;SDS011;11181;51.002;4.356;2022-08-16T05:20:24;14.33;;;12.33;;
22034;SDS011;11181;51.002;4.356;2022-08-16T05:22:51;16.00;;;12.90;;
22034;SDS011;11181;51.002;4.356;2022-08-16T05:25:18;13.60;;;12.10;;
22034;SDS011;11181;51.002;4.356;2022-08-16T05:27:45;19.47;;;13.27;;
22034;SDS011;11181;51.002;4.356;2022-08-16T05:30:13;13.30;;;11.93;;
22034;SDS011;11181;51.002;4.356;2022-08-16T05:32:41;12.40;;;11.20;;
22034;SDS011;11181;51.002;4.356;2022-08-16T05:35:08;15.37;;;12.47;;
22034;SDS011;11181;51.002;4.356;2022-08-16T05:37:38;15.00;;;11.90;;
22034;SDS011;11181;51.002;4.356;2022-08-16T05:40:07;16.23;;;12.63;;
22034;SDS011;11181;51.002;4.356;2022-08-16T05:42:36;15.27;;;11.90;;
22034;SDS011;11181;51.002;4.356;2022-08-16T05:45:03;15.33;;;12.73;;
22034;SDS011;11181;51.002;4.356;2022-08-16T05:47:31;14.20;;;12.53;;
22034;SDS011;11181;51.002;4.356;2022-08-16T05:49:58;13.60;;;12.20;;
22034;SDS011;11181;51.002;4.356;2022-08-16T05:52:25;17.07;;;12.07;;
22034;SDS011;11181;51.002;4.356;2022-08-16T05:54:53;14.97;;;12.50;;
22034;SDS011;11181;51.002;4.356;2022-08-16T05:57:20;16.67;;;13.07;;
22034;SDS011;11181;51.002;4.356;2022-08-16T05:59:47;15.63;;;12.27;;
22034;SDS011;11181;51.002;4.356;2022-08-16T06:02:14;16.27;;;12.93;;
22034;SDS011;11181;51.002;4.356;2022-08-16T06:04:42;13.33;;;11.17;;
22034;SDS011;11181;51.002;4.356;2022-08-16T06:07:09;17.17;;;11.60;;
22034;SDS011;11181;51.002;4.356;2022-08-16T06:09:37;12.40;;;10.93;;
22034;SDS011;11181;51.002;4.356;2022-08-16T06:12:05;12.73;;;11.23;;
22034;SDS011;11181;51.002;4.356;2022-08-16T06:14:33;16.10;;;10.97;;
22034;SDS011;11181;51.002;4.356;2022-08-16T06:17:00;13.07;;;11.33;;
22034;SDS011;11181;51.002;4.356;2022-08-16T06:19:27;12.93;;;11.60;;
22034;SDS011;11181;51.002;4.356;2022-08-16T06:21:54;13.37;;;10.63;;
22034;SDS011;11181;51.002;4.356;2022-08-16T06:24:21;13.87;;;11.47;;
22034;SDS011;11181;51.002;4.356;2022-08-16T06:26:48;15.17;;;9.93;;
22034;SDS011;11181;51.002;4.356;2022-08-16T06:29:16;15.17;;;11.77;;
22034;SDS011;11181;51.002;4.356;2022-08-16T06:31:43;13.13;;;10.47;;
22034;SDS011;11181;51.002;4.356;2022-08-16T06:34:10;12.13;;;10.03;;
22034;SDS011;11181;51.002;4.356;2022-08-16T06:36:39;11.40;;;10.17;;
22034;SDS011;11181;51.002;4.356;2022-08-16T06:39:06;12.53;;;9.27;;
22034;SDS011;11181;51.002;4.356;2022-08-16T06:41:33;14.03;;;9.70;;
22034;SDS011;11181;51.002;4.356;2022-08-16T06:44:00;11.63;;;9.93;;
22034;SDS011;11181;51.002;4.356;2022-08-16T06:46:29;11.87;;;9.43;;
22034;SDS011;11181;51.002;4.356;2022-08-16T06:48:58;13.33;;;10.37;;
22034;SDS011;11181;51.002;4.356;2022-08-16T06:51:25;10.60;;;9.27;;
22034;SDS011;11181;51.002;4.356;2022-08-16T06:53:52;16.30;;;9.87;;
22034;SDS011;11181;51.002;4.356;2022-08-16T06:56:19;11.80;;;10.17;;
22034;SDS011;11181;51.002;4.356;2022-08-16T06:58:46;13.93;;;11.17;;
22034;SDS011;11181;51.002;4.356;2022-08-16T07:01:13;10.80;;;9.60;;
22034;SDS011;11181;51.002;4.356;2022-08-16T07:03:41;15.47;;;10.13;;
22034;SDS011;11181;51.002;4.356;2022-08-16T07:06:08;10.73;;;9.63;;
22034;SDS011;11181;51.002;4.356;2022-08-16T07:08:36;11.77;;;9.70;;
22034;SDS011;11181;51.002;4.356;2022-08-16T07:11:06;10.40;;;8.87;;
22034;SDS011;11181;51.002;4.356;2022-08-16T07:13:33;11.30;;;8.33;;
22034;SDS011;11181;51.002;4.356;2022-08-16T07:16:00;9.65;;;7.82;;
22034;SDS011;11181;51.002;4.356;2022-08-16T07:18:29;11.38;;;9.32;;
22034;SDS011;11181;51.002;4.356;2022-08-16T07:20:58;13.57;;;9.07;;
22034;SDS011;11181;51.002;4.356;2022-08-16T07:23:25;13.77;;;9.20;;
22034;SDS011;11181;51.002;4.356;2022-08-16T07:25:52;10.32;;;8.43;;
22034;SDS011;11181;51.002;4.356;2022-08-16T07:28:20;11.98;;;8.45;;
22034;SDS011;11181;51.002;4.356;2022-08-16T07:30:47;12.82;;;9.45;;
22034;SDS011;11181;51.002;4.356;2022-08-16T07:33:14;8.07;;;7.05;;
22034;SDS011;11181;51.002;4.356;2022-08-16T07:35:42;9.05;;;6.53;;
22034;SDS011;11181;51.002;4.356;2022-08-16T07:38:11;7.38;;;6.43;;
22034;SDS011;11181;51.002;4.356;2022-08-16T07:40:38;7.10;;;6.20;;
22034;SDS011;11181;51.002;4.356;2022-08-16T07:43:05;8.05;;;6.57;;
22034;SDS011;11181;51.002;4.356;2022-08-16T07:45:32;6.72;;;6.03;;
22034;SDS011;11181;51.002;4.356;2022-08-16T07:47:59;9.55;;;6.53;;
22034;SDS011;11181;51.002;4.356;2022-08-16T07:50:26;8.13;;;6.03;;
22034;SDS011;11181;51.002;4.356;2022-08-16T07:52:53;6.65;;;5.68;;
22034;SDS011;11181;51.002;4.356;2022-08-16T07:55:22;5.60;;;4.90;;
22034;SDS011;11181;51.002;4.356;2022-08-16T07:57:49;8.07;;;6.68;;
22034;SDS011;11181;51.002;4.356;2022-08-16T08:00:16;5.88;;;5.13;;
22034;SDS011;11181;51.002;4.356;2022-08-16T08:02:44;6.43;;;5.82;;
22034;SDS011;11181;51.002;4.356;2022-08-16T08:05:12;6.05;;;5.15;;
22034;SDS011;11181;51.002;4.356;2022-08-16T08:07:39;6.07;;;5.45;;
22034;SDS011;11181;51.002;4.356;2022-08-16T08:10:06;6.72;;;5.30;;
22034;SDS011;11181;51.002;4.356;2022-08-16T08:12:35;5.50;;;4.45;;
22034;SDS011;11181;51.002;4.356;2022-08-16T08:15:04;6.70;;;4.97;;
22034;SDS011;11181;51.002;4.356;2022-08-16T08:17:32;4.75;;;4.30;;
22034;SDS011;11181;51.002;4.356;2022-08-16T08:20:03;5.20;;;4.78;;
22034;SDS011;11181;51.002;4.356;2022-08-16T08:22:31;8.15;;;5.25;;
22034;SDS011;11181;51.002;4.356;2022-08-16T08:24:58;5.05;;;4.60;;
22034;SDS011;11181;51.002;4.356;2022-08-16T08:27:27;5.40;;;4.90;;
22034;SDS011;11181;51.002;4.356;2022-08-16T08:29:56;5.22;;;4.72;;
22034;SDS011;11181;51.002;4.356;2022-08-16T08:32:23;5.68;;;4.30;;
22034;SDS011;11181;51.002;4.356;2022-08-16T08:34:52;5.68;;;5.07;;
22034;SDS011;11181;51.002;4.356;2022-08-16T08:37:19;6.18;;;5.13;;
22034;SDS011;11181;51.002;4.356;2022-08-16T08:39:46;5.88;;;4.82;;
22034;SDS011;11181;51.002;4.356;2022-08-16T08:42:13;6.22;;;4.30;;
22034;SDS011;11181;51.002;4.356;2022-08-16T08:44:40;10.05;;;4.60;;
22034;SDS011;11181;51.002;4.356;2022-08-16T08:47:10;7.13;;;4.70;;
22034;SDS011;11181;51.002;4.356;2022-08-16T08:49:37;6.32;;;3.80;;
22034;SDS011;11181;51.002;4.356;2022-08-16T08:52:05;7.00;;;5.22;;
22034;SDS011;11181;51.002;4.356;2022-08-16T08:54:32;7.43;;;4.60;;
22034;SDS011;11181;51.002;4.356;2022-08-16T08:56:59;4.43;;;4.00;;
22034;SDS011;11181;51.002;4.356;2022-08-16T08:59:27;4.65;;;4.00;;
22034;SDS011;11181;51.002;4.356;2022-08-16T09:01:54;5.82;;;3.83;;
22034;SDS011;11181;51.002;4.356;2022-08-16T09:04:22;7.65;;;3.95;;
22034;SDS011;11181;51.002;4.356;2022-08-16T09:06:50;4.90;;;3.75;;
22034;SDS011;11181;51.002;4.356;2022-08-16T09:09:17;5.05;;;3.75;;
22034;SDS011;11181;51.002;4.356;2022-08-16T09:11:45;4.25;;;3.88;;
22034;SDS011;11181;51.002;4.356;2022-08-16T09:14:12;6.13;;;3.63;;
22034;SDS011;11181;51.002;4.356;2022-08-16T09:16:39;4.53;;;4.03;;
22034;SDS011;11181;51.002;4.356;2022-08-16T09:19:06;4.40;;;4.00;;
22034;SDS011;11181;51.002;4.356;2022-08-16T09:21:34;5.78;;;4.05;;
22034;SDS011;11181;51.002;4.356;2022-08-16T09:24:02;4.20;;;3.67;;
22034;SDS011;11181;51.002;4.356;2022-08-16T09:26:29;4.93;;;4.43;;
22034;SDS011;11181;51.002;4.356;2022-08-16T09:28:56;4.13;;;3.80;;
22034;SDS011;11181;51.002;4.356;2022-08-16T09:31:23;7.53;;;4.43;;
22034;SDS011;11181;51.002;4.356;2022-08-16T09:33:50;7.00;;;4.00;;
22034;SDS011;11181;51.002;4.356;2022-08-16T09:36:18;7.07;;;4.15;;
22034;SDS011;11181;51.002;4.356;2022-08-16T09:38:46;5.88;;;3.42;;
22034;SDS011;11181;51.002;4.356;2022-08-16T09:41:13;7.40;;;4.38;;
22034;SDS011;11181;51.002;4.356;2022-08-16T09:43:41;4.00;;;3.40;;
22034;SDS011;11181;51.002;4.356;2022-08-16T09:46:09;4.55;;;3.88;;
22034;SDS011;11181;51.002;4.356;2022-08-16T09:48:36;4.05;;;3.30;;
22034;SDS011;11181;51.002;4.356;2022-08-16T09:51:05;4.88;;;3.47;;
22034;SDS011;11181;51.002;4.356;2022-08-16T09:53:33;5.18;;;3.90;;
22034;SDS011;11181;51.002;4.356;2022-08-16T09:56:03;8.27;;;3.60;;
22034;SDS011;11181;51.002;4.356;2022-08-16T09:58:34;5.13;;;4.10;;
22034;SDS011;11181;51.002;4.356;2022-08-16T10:01:01;4.03;;;3.65;;
22034;SDS011;11181;51.002;4.356;2022-08-16T10:03:28;6.18;;;4.03;;
22034;SDS011;11181;51.002;4.356;2022-08-16T10:05:55;4.47;;;3.88;;
22034;SDS011;11181;51.002;4.356;2022-08-16T10:08:22;4.82;;;3.50;;
22034;SDS011;11181;51.002;4.356;2022-08-16T10:10:49;3.92;;;3.28;;
22034;SDS011;11181;51.002;4.356;2022-08-16T10:13:36;4.28;;;3.83;;
22034;SDS011;11181;51.002;4.356;2022-08-16T10:16:03;4.32;;;3.58;;
22034;SDS011;11181;51.002;4.356;2022-08-16T10:18:30;6.90;;;3.95;;
22034;SDS011;11181;51.002;4.356;2022-08-16T10:20:59;3.80;;;3.47;;
22034;SDS011;11181;51.002;4.356;2022-08-16T10:23:26;5.00;;;4.00;;
22034;SDS011;11181;51.002;4.356;2022-08-16T10:25:54;6.00;;;4.05;;
22034;SDS011;11181;51.002;4.356;2022-08-16T10:28:21;6.88;;;3.85;;
22034;SDS011;11181;51.002;4.356;2022-08-16T10:30:50;4.18;;;3.78;;
22034;SDS011;11181;51.002;4.356;2022-08-16T10:33:17;4.80;;;4.28;;
22034;SDS011;11181;51.002;4.356;2022-08-16T10:35:44;7.90;;;4.15;;
22034;SDS011;11181;51.002;4.356;2022-08-16T10:38:12;3.97;;;3.17;;
22034;SDS011;11181;51.002;4.356;2022-08-16T10:40:40;3.83;;;2.92;;
22034;SDS011;11181;51.002;4.356;2022-08-16T10:43:08;6.00;;;4.00;;
22034;SDS011;11181;51.002;4.356;2022-08-16T10:45:35;8.10;;;4.47;;
22034;SDS011;11181;51.002;4.356;2022-08-16T10:48:04;5.80;;;4.03;;
22034;SDS011;11181;51.002;4.356;2022-08-16T10:50:34;4.13;;;3.72;;
22034;SDS011;11181;51.002;4.356;2022-08-16T10:53:02;5.45;;;3.90;;
22034;SDS011;11181;51.002;4.356;2022-08-16T10:55:31;7.18;;;4.20;;
22034;SDS011;11181;51.002;4.356;2022-08-16T10:58:00;3.95;;;3.47;;
22034;SDS011;11181;51.002;4.356;2022-08-16T11:00:29;7.05;;;4.18;;
22034;SDS011;11181;51.002;4.356;2022-08-16T11:02:57;4.40;;;4.00;;
22034;SDS011;11181;51.002;4.356;2022-08-16T11:05:25;4.22;;;3.83;;
22034;SDS011;11181;51.002;4.356;2022-08-16T11:07:52;3.75;;;3.45;;
22034;SDS011;11181;51.002;4.356;2022-08-16T11:10:21;4.88;;;3.63;;
22034;SDS011;11181;51.002;4.356;2022-08-16T11:12:50;3.53;;;3.22;;
22034;SDS011;11181;51.002;4.356;2022-08-16T11:15:17;8.18;;;3.45;;
22034;SDS011;11181;51.002;4.356;2022-08-16T11:17:44;4.70;;;3.75;;
22034;SDS011;11181;51.002;4.356;2022-08-16T11:20:12;3.85;;;3.50;;
22034;SDS011;11181;51.002;4.356;2022-08-16T11:22:43;4.03;;;3.63;;
22034;SDS011;11181;51.002;4.356;2022-08-16T11:25:11;3.72;;;3.42;;
22034;SDS011;11181;51.002;4.356;2022-08-16T11:27:40;7.18;;;3.65;;
22034;SDS011;11181;51.002;4.356;2022-08-16T11:30:07;6.07;;;4.10;;
22034;SDS011;11181;51.002;4.356;2022-08-16T11:32:36;4.70;;;3.60;;
22034;SDS011;11181;51.002;4.356;2022-08-16T11:35:05;8.63;;;3.20;;
22034;SDS011;11181;51.002;4.356;2022-08-16T11:37:34;5.93;;;3.45;;
22034;SDS011;11181;51.002;4.356;2022-08-16T11:40:04;11.18;;;4.03;;
22034;SDS011;11181;51.002;4.356;2022-08-16T11:42:32;5.43;;;3.90;;
22034;SDS011;11181;51.002;4.356;2022-08-16T11:44:59;5.43;;;3.42;;
22034;SDS011;11181;51.002;4.356;2022-08-16T11:47:26;6.55;;;4.25;;
22034;SDS011;11181;51.002;4.356;2022-08-16T11:49:53;9.43;;;3.88;;
22034;SDS011;11181;51.002;4.356;2022-08-16T11:52:20;8.25;;;4.47;;
22034;SDS011;11181;51.002;4.356;2022-08-16T11:54:49;7.88;;;3.50;;
22034;SDS011;11181;51.002;4.356;2022-08-16T11:57:17;7.45;;;4.40;;
22034;SDS011;11181;51.002;4.356;2022-08-16T11:59:44;5.28;;;4.05;;
22034;SDS011;11181;51.002;4.356;2022-08-16T12:02:11;15.70;;;4.13;;
22034;SDS011;11181;51.002;4.356;2022-08-16T12:04:38;4.03;;;3.67;;
22034;SDS011;11181;51.002;4.356;2022-08-16T12:07:06;3.85;;;3.55;;
22034;SDS011;11181;51.002;4.356;2022-08-16T12:09:34;5.22;;;4.70;;
22034;SDS011;11181;51.002;4.356;2022-08-16T12:12:02;6.05;;;4.35;;
22034;SDS011;11181;51.002;4.356;2022-08-16T12:14:31;4.32;;;4.03;;
22034;SDS011;11181;51.002;4.356;2022-08-16T12:16:59;4.57;;;4.10;;
22034;SDS011;11181;51.002;4.356;2022-08-16T12:19:28;4.97;;;4.22;;
22034;SDS011;11181;51.002;4.356;2022-08-16T12:21:55;5.75;;;4.05;;
22034;SDS011;11181;51.002;4.356;2022-08-16T12:24:23;5.50;;;4.28;;
22034;SDS011;11181;51.002;4.356;2022-08-16T12:26:50;4.78;;;4.28;;
22034;SDS011;11181;51.002;4.356;2022-08-16T12:29:17;4.93;;;4.20;;
22034;SDS011;11181;51.002;4.356;2022-08-16T12:31:46;4.13;;;3.83;;
22034;SDS011;11181;51.002;4.356;2022-08-16T12:34:14;4.40;;;3.90;;
22034;SDS011;11181;51.002;4.356;2022-08-16T12:36:41;5.00;;;4.38;;
22034;SDS011;11181;51.002;4.356;2022-08-16T12:39:09;4.15;;;3.72;;
22034;SDS011;11181;51.002;4.356;2022-08-16T12:41:36;4.65;;;3.78;;
22034;SDS011;11181;51.002;4.356;2022-08-16T12:44:03;4.45;;;3.92;;
22034;SDS011;11181;51.002;4.356;2022-08-16T12:46:31;7.50;;;4.20;;
22034;SDS011;11181;51.002;4.356;2022-08-16T12:49:00;3.72;;;3.42;;
22034;SDS011;11181;51.002;4.356;2022-08-16T12:51:29;5.47;;;3.70;;
22034;SDS011;11181;51.002;4.356;2022-08-16T12:53:59;3.88;;;3.55;;
22034;SDS011;11181;51.002;4.356;2022-08-16T12:56:31;3.70;;;3.40;;
22034;SDS011;11181;51.002;4.356;2022-08-16T12:59:01;3.60;;;3.30;;
22034;SDS011;11181;51.002;4.356;2022-08-16T13:01:31;3.30;;;3.00;;
22034;SDS011;11181;51.002;4.356;2022-08-16T13:04:01;7.65;;;3.60;;
22034;SDS011;11181;51.002;4.356;2022-08-16T13:06:31;4.70;;;3.28;;
22034;SDS011;11181;51.002;4.356;2022-08-16T13:08:58;7.22;;;3.83;;
22034;SDS011;11181;51.002;4.356;2022-08-16T13:11:29;3.20;;;2.90;;
22034;SDS011;11181;51.002;4.356;2022-08-16T13:14:09;5.57;;;3.72;;
22034;SDS011;11181;51.002;4.356;2022-08-16T13:16:36;3.17;;;2.90;;
22034;SDS011;11181;51.002;4.356;2022-08-16T13:19:05;4.45;;;2.90;;
22034;SDS011;11181;51.002;4.356;2022-08-16T13:21:32;4.38;;;3.10;;
22034;SDS011;11181;51.002;4.356;2022-08-16T13:23:58;3.92;;;3.45;;
22034;SDS011;11181;51.002;4.356;2022-08-16T13:26:25;2.75;;;2.55;;
22034;SDS011;11181;51.002;4.356;2022-08-16T13:28:52;4.45;;;3.28;;
22034;SDS011;11181;51.002;4.356;2022-08-16T13:31:19;5.85;;;3.10;;
22034;SDS011;11181;51.002;4.356;2022-08-16T13:33:46;4.63;;;3.40;;
22034;SDS011;11181;51.002;4.356;2022-08-16T13:36:15;3.58;;;3.28;;
22034;SDS011;11181;51.002;4.356;2022-08-16T13:38:42;3.45;;;3.08;;
22034;SDS011;11181;51.002;4.356;2022-08-16T13:41:09;3.95;;;3.17;;
22034;SDS011;11181;51.002;4.356;2022-08-16T13:43:37;4.50;;;3.75;;
22034;SDS011;11181;51.002;4.356;2022-08-16T13:46:06;3.70;;;3.40;;
22034;SDS011;11181;51.002;4.356;2022-08-16T13:48:33;7.32;;;3.72;;
22034;SDS011;11181;51.002;4.356;2022-08-16T13:51:02;4.43;;;3.40;;
22034;SDS011;11181;51.002;4.356;2022-08-16T13:53:30;4.28;;;3.88;;
22034;SDS011;11181;51.002;4.356;2022-08-16T13:55:58;6.60;;;3.53;;
22034;SDS011;11181;51.002;4.356;2022-08-16T13:58:25;5.55;;;3.88;;
22034;SDS011;11181;51.002;4.356;2022-08-16T14:00:53;4.53;;;3.47;;
22034;SDS011;11181;51.002;4.356;2022-08-16T14:03:20;5.45;;;3.78;;
22034;SDS011;11181;51.002;4.356;2022-08-16T14:05:47;3.13;;;2.92;;
22034;SDS011;11181;51.002;4.356;2022-08-16T14:08:13;4.78;;;3.33;;
22034;SDS011;11181;51.002;4.356;2022-08-16T14:10:42;4.78;;;3.30;;
22034;SDS011;11181;51.002;4.356;2022-08-16T14:13:09;4.15;;;3.33;;
22034;SDS011;11181;51.002;4.356;2022-08-16T14:15:36;3.28;;;2.95;;
22034;SDS011;11181;51.002;4.356;2022-08-16T14:18:03;3.78;;;3.47;;
22034;SDS011;11181;51.002;4.356;2022-08-16T14:20:30;4.47;;;3.50;;
22034;SDS011;11181;51.002;4.356;2022-08-16T14:22:57;5.72;;;3.75;;
22034;SDS011;11181;51.002;4.356;2022-08-16T14:25:24;6.00;;;3.35;;
22034;SDS011;11181;51.002;4.356;2022-08-16T14:27:52;5.38;;;3.28;;
22034;SDS011;11181;51.002;4.356;2022-08-16T14:30:22;4.35;;;3.60;;
22034;SDS011;11181;51.002;4.356;2022-08-16T14:32:49;3.65;;;3.05;;
22034;SDS011;11181;51.002;4.356;2022-08-16T14:35:18;5.10;;;3.60;;
22034;SDS011;11181;51.002;4.356;2022-08-16T14:37:47;3.60;;;3.28;;
22034;SDS011;11181;51.002;4.356;2022-08-16T14:40:14;4.13;;;2.90;;